Погода Сильничкана неделю

Лодзинское воеводство, Польша

17 - 23 июня
  • 17июня
    Сегодня
    +15°
    +27°
    Ясно и безоблачно
    ВремяПогодаТемператураВлажностьДавлениеВетер, м/сВероятность осадков
    02:00Ясно и безоблачно+11°C93 %739 мм1.7 м/с2 %
    05:00Ясно и безоблачно+10°C95 %740 мм1.9 м/с2 %
    08:00Ясно и безоблачно+16°C78 %740 мм1.1 м/с2 %
    11:00Практически безоблачно+23°C46 %741 мм1.5 м/с2 %
    14:00Ясно и безоблачно+25°C40 %741 мм2.6 м/с8 %
    17:00Ясно и безоблачно+26°C42 %740 мм3.0 м/с7 %
    20:00Практически безоблачно+24°C55 %740 мм1.9 м/с4 %
    23:00Облачно с прояснениями+18°C74 %741 мм2.4 м/с2 %
  • 18июня
    Вторник
    +18°
    +28°
    Облачно с прояснениями
    ВремяПогодаТемператураВлажностьДавлениеВетер, м/сВероятность осадков
    02:00Облачно с прояснениями+17°C80 %741 мм2.5 м/с2 %
    05:00Пасмурно, сплошная облачность+16°C84 %742 мм3.7 м/с17 %
    08:00Ясно и безоблачно+19°C79 %743 мм2.5 м/с43 %
    11:00Ясно и безоблачно+24°C57 %743 мм3.2 м/с4 %
    14:00Облачно с прояснениями+27°C47 %743 мм3.5 м/с20 %
    17:00Облачно с прояснениями+26°C51 %742 мм3.7 м/с37 %
    20:00Ясно и безоблачно+24°C73 %741 мм1.0 м/с13 %
    23:00Ясно и безоблачно+20°C78 %741 мм3.0 м/с2 %
  • 19июня
    Среда
    +13°
    +32°
    Ясно и безоблачно
    ВремяПогодаТемператураВлажностьДавлениеВетер, м/сВероятность осадков
    02:00Облачно с прояснениями+19°C78 %740 мм3.0 м/с4 %
    05:00Практически безоблачно+18°C80 %740 мм3.4 м/с2 %
    08:00Облачно с прояснениями+24°C61 %739 мм4.7 м/с2 %
    11:00Ясно и безоблачно+29°C44 %739 мм6.1 м/с2 %
    14:00Ясно и безоблачно+31°C35 %739 мм5.9 м/с3 %
    17:00Облачно с прояснениями+30°C36 %738 мм5.3 м/с19 %
    20:00Облачно с прояснениями+27°C53 %739 мм2.6 м/с22 %
    23:00Практически безоблачно+19°C69 %740 мм5.8 м/с33 %
  • 20июня
    Четверг
    +12°
    +23°
    Облачно с прояснениями
    ВремяПогодаТемператураВлажностьДавлениеВетер, м/сВероятность осадков
    02:00Небольшая облачность+17°C92 %742 мм5.1 м/с35 %
    05:00Ясно и безоблачно+14°C90 %744 мм3.6 м/с16 %
    08:00Ясно и безоблачно+16°C70 %745 мм2.5 м/с10 %
    11:00Практически безоблачно+20°C47 %746 мм2.3 м/с8 %
    14:00Облачно с прояснениями+22°C37 %746 мм2.2 м/с3 %
    17:00Облачно с прояснениями+23°C34 %745 мм2.0 м/с2 %
    20:00Облачно с прояснениями+22°C55 %744 мм1.0 м/с2 %
    23:00Облачно с прояснениями+16°C56 %744 мм1.1 м/с2 %
  • 21июня
    Пятница
    +18°
    +29°
    Ясно и безоблачно
    ВремяПогодаТемператураВлажностьДавлениеВетер, м/сВероятность осадков
    02:00Облачно с прояснениями+14°C74 %743 мм1.7 м/с2 %
    05:00Практически безоблачно+13°C73 %743 мм2.2 м/с4 %
    08:00Ясно и безоблачно+19°C55 %743 мм2.8 м/с4 %
    11:00Практически безоблачно+25°C33 %743 мм3.5 м/с3 %
    14:00Ясно и безоблачно+28°C34 %742 мм3.2 м/с7 %
    17:00Облачно с прояснениями+27°C40 %740 мм3.6 м/с12 %
    20:00Облачно с прояснениями+26°C47 %739 мм3.9 м/с11 %
    23:00Облачно с прояснениями+22°C51 %738 мм5.0 м/с10 %
Мы используем cookies
Соглашаюсь